< < Back
Terminal Aerodrome Forecast


Current Version              Previous Versions:   1  2  3  4  5  6  7  8  9  

Terminal Aerodrome Forecast

699
FTUS42 KMLB 051736
TAFDAB
TAF
KDAB 051736Z 0518/0618 01016G24KT P6SM FEW050
     FM060000 02011KT P6SM BKN050
     FM060600 03009KT P6SM BKN050
     FM061300 03008KT P6SM BKN040=

Latest METAR

046
SAUS80 KWBC 060000 CCA
MTRDAB
METAR KDAB 052353Z 35009KT 10SM FEW035 SCT045 11/07 A3026 RMK AO2 SLP247
T01110067 10133 20111 50001 $


USA.gov is the U.S. government's official web portal to all federal, state and local government web resources and services.